Time;durP1;ratioP1;P1;durP2;ratioP2;P2;SDS_P1;SDS_P2;PMS_P1;PMS_P2;Temp;Humidity;BMP_temperature;BMP_pressure;BME280_temperature;BME280_humidity;BME280_pressure;Samples;Min_cycle;Max_cycle;Signal;HPM_P1;HPM_P2
2022/10/01 00:00:14;;;;;;;2.58;1.40;;;;;;;;;;5034400;28;20423;-68
2022/10/01 00:02:40;;;;;;;1.63;1.50;;;;;;;;;;5034695;28;20029;-68
2022/10/01 00:05:06;;;;;;;1.88;1.58;;;;;;;;;;5034908;28;20087;-69
2022/10/01 00:07:39;;;;;;;1.48;1.38;;;;;;;;;;5034589;28;20032;-68
2022/10/01 00:10:06;;;;;;;2.38;1.60;;;;;;;;;;5034835;28;20036;-68
2022/10/01 00:12:32;;;;;;;2.65;1.60;;;;;;;;;;5034862;28;20361;-68
2022/10/01 00:14:58;;;;;;;2.65;1.67;;;;;;;;;;5028976;28;20033;-67
2022/10/01 00:17:23;;;;;;;2.22;1.70;;;;;;;;;;5014708;28;20021;-68
2022/10/01 00:19:48;;;;;;;2.85;1.75;;;;;;;;;;5014636;28;20018;-65
2022/10/01 00:22:14;;;;;;;2.70;1.80;;;;;;;;;;5014582;28;20542;-68
2022/10/01 00:24:40;;;;;;;1.85;1.35;;;;;;;;;;5013248;28;20083;-66
2022/10/01 00:27:05;;;;;;;2.33;1.63;;;;;;;;;;5014453;28;20026;-68
2022/10/01 00:29:31;;;;;;;3.03;1.83;;;;;;;;;;5014758;28;20401;-67
2022/10/01 00:31:57;;;;;;;1.60;1.50;;;;;;;;;;5014402;28;20037;-67
2022/10/01 00:34:22;;;;;;;1.50;1.40;;;;;;;;;;5013424;28;20042;-65
2022/10/01 00:36:48;;;;;;;1.60;1.50;;;;;;;;;;5014521;28;20030;-67
2022/10/01 00:39:13;;;;;;;1.70;1.35;;;;;;;;;;5012927;28;20042;-67
2022/10/01 00:41:39;;;;;;;1.58;1.40;;;;;;;;;;5014092;28;20120;-65
2022/10/01 00:44:26;;;;;;;1.60;1.50;;;;;;;;;;5014206;28;20034;-67
2022/10/01 00:46:53;;;;;;;2.00;1.80;;;;;;;;;;5014336;28;20053;-68
2022/10/01 00:49:23;;;;;;;2.53;1.35;;;;;;;;;;5014064;28;20075;-67
2022/10/01 00:51:54;;;;;;;1.63;1.52;;;;;;;;;;5014361;28;20477;-68
2022/10/01 00:54:21;;;;;;;;;;;;;;;;;;5014481;28;20037;-66
2022/10/01 00:56:52;;;;;;;1.70;1.60;;;;;;;;;;5014255;28;20365;-68
2022/10/01 00:59:18;;;;;;;3.50;1.50;;;;;;;;;;5013852;28;20493;-67
2022/10/01 01:01:43;;;;;;;1.98;1.58;;;;;;;;;;5013830;28;20029;-67
2022/10/01 01:04:15;;;;;;;1.90;1.70;;;;;;;;;;5013849;28;20029;-67
2022/10/01 01:06:44;;;;;;;1.80;1.70;;;;;;;;;;5014098;28;20025;-66
2022/10/01 01:09:09;;;;;;;2.00;1.80;;;;;;;;;;5013727;28;20060;-68
2022/10/01 01:11:47;;;;;;;3.42;1.50;;;;;;;;;;5013927;28;20022;-67
2022/10/01 01:14:28;;;;;;;3.83;1.70;;;;;;;;;;5013726;28;20057;-67
2022/10/01 01:17:00;;;;;;;3.10;1.63;;;;;;;;;;5013864;28;20429;-67
2022/10/01 01:20:03;;;;;;;2.55;1.52;;;;;;;;;;5013836;28;20026;-68
2022/10/01 01:22:35;;;;;;;1.90;1.70;;;;;;;;;;5013726;28;20381;-68
2022/10/01 01:25:14;;;;;;;1.50;1.40;;;;;;;;;;5013375;28;20025;-68
2022/10/01 01:28:03;;;;;;;1.93;1.67;;;;;;;;;;5013464;28;20076;-68
2022/10/01 01:30:32;;;;;;;1.67;1.58;;;;;;;;;;5013021;28;20285;-68
2022/10/01 01:33:05;;;;;;;1.50;1.40;;;;;;;;;;5013353;28;20068;-66
2022/10/01 01:35:37;;;;;;;1.40;1.30;;;;;;;;;;5013350;28;20073;-64
2022/10/01 01:38:13;;;;;;;1.55;1.40;;;;;;;;;;5013387;28;20478;-65
2022/10/01 01:40:41;;;;;;;2.17;1.40;;;;;;;;;;5013468;28;20054;-66
2022/10/01 01:43:12;;;;;;;1.58;1.48;;;;;;;;;;5013168;28;20623;-64
2022/10/01 01:45:39;;;;;;;1.73;1.33;;;;;;;;;;5012868;28;20084;-65
2022/10/01 01:48:07;;;;;;;1.40;1.30;;;;;;;;;;5013165;28;20475;-66
2022/10/01 01:50:41;;;;;;;1.67;1.50;;;;;;;;;;5013290;28;20394;-65
2022/10/01 01:53:06;;;;;;;2.00;1.67;;;;;;;;;;5013118;28;20401;-66
2022/10/01 01:55:35;;;;;;;1.98;1.50;;;;;;;;;;5013008;28;20026;-66
2022/10/01 01:58:01;;;;;;;1.40;1.27;;;;;;;;;;5013204;28;20511;-65
2022/10/01 02:00:27;;;;;;;1.40;1.30;;;;;;;;;;5012841;28;20030;-65
2022/10/01 02:02:53;;;;;;;1.85;1.65;;;;;;;;;;5012815;28;20536;-67
2022/10/01 02:05:23;;;;;;;1.42;1.33;;;;;;;;;;5013144;28;20025;-67
2022/10/01 02:08:11;;;;;;;1.95;1.30;;;;;;;;;;5012890;28;20050;-67
2022/10/01 02:11:05;;;;;;;1.95;1.50;;;;;;;;;;5013141;28;20402;-65
2022/10/01 02:13:38;;;;;;;1.88;1.55;;;;;;;;;;5013025;28;20409;-66
2022/10/01 02:16:19;;;;;;;1.50;1.40;;;;;;;;;;5011538;28;20164;-68
2022/10/01 02:18:49;;;;;;;1.95;1.60;;;;;;;;;;5013062;28;20033;-68
2022/10/01 02:21:25;;;;;;;1.73;1.48;;;;;;;;;;5012861;28;20041;-67
2022/10/01 02:24:00;;;;;;;2.72;1.45;;;;;;;;;;5012771;28;20029;-68
2022/10/01 02:26:27;;;;;;;1.63;1.50;;;;;;;;;;5012664;28;20033;-68
2022/10/01 02:28:57;;;;;;;1.45;1.35;;;;;;;;;;5012662;28;20033;-64
2022/10/01 02:31:23;;;;;;;1.60;1.50;;;;;;;;;;5012959;28;20026;-66
2022/10/01 02:33:51;;;;;;;2.03;1.50;;;;;;;;;;5012539;28;20026;-66
2022/10/01 02:36:18;;;;;;;1.60;1.50;;;;;;;;;;5012822;28;20101;-67
2022/10/01 02:38:45;;;;;;;2.10;1.65;;;;;;;;;;5012293;28;20046;-66
2022/10/01 02:41:14;;;;;;;1.85;1.50;;;;;;;;;;5012386;28;20026;-66
2022/10/01 02:43:56;;;;;;;1.60;1.50;;;;;;;;;;5012442;28;20022;-66
2022/10/01 02:46:44;;;;;;;1.70;1.60;;;;;;;;;;5012726;28;20628;-64
2022/10/01 02:49:12;;;;;;;2.15;1.42;;;;;;;;;;5012571;28;20022;-66
2022/10/01 02:51:48;;;;;;;2.75;1.48;;;;;;;;;;5012220;28;20141;-68
2022/10/01 02:54:29;;;;;;;1.70;1.60;;;;;;;;;;5012261;28;20470;-66
2022/10/01 02:59:39;;;;;;;1.45;1.35;;;;;;;;;;5016533;28;20053;-68
2022/10/01 03:02:05;;;;;;;1.58;1.45;;;;;;;;;;5016079;28;20033;-68
2022/10/01 03:04:30;;;;;;;1.25;1.15;;;;;;;;;;5016025;28;20026;-67
2022/10/01 03:07:02;;;;;;;1.80;1.25;;;;;;;;;;5016382;28;20061;-68
2022/10/01 03:09:30;;;;;;;1.38;1.27;;;;;;;;;;5016074;28;20026;-68
2022/10/01 03:11:57;;;;;;;1.90;1.40;;;;;;;;;;5016037;28;20017;-67
2022/10/01 03:14:23;;;;;;;1.98;1.63;;;;;;;;;;5016225;28;20129;-69
2022/10/01 03:16:49;;;;;;;1.58;1.40;;;;;;;;;;5015787;28;20109;-69
2022/10/01 03:19:15;;;;;;;1.75;1.40;;;;;;;;;;5015897;28;20025;-67
2022/10/01 03:21:40;;;;;;;1.77;1.67;;;;;;;;;;5015828;28;20029;-69
2022/10/01 03:24:06;;;;;;;1.70;1.40;;;;;;;;;;5015962;28;20065;-68
2022/10/01 03:26:32;;;;;;;1.60;1.17;;;;;;;;;;5015749;28;20485;-67
2022/10/01 03:28:57;;;;;;;2.28;1.52;;;;;;;;;;5015879;28;20053;-67
2022/10/01 03:31:23;;;;;;;1.40;1.30;;;;;;;;;;5015550;28;20066;-67
2022/10/01 03:33:48;;;;;;;1.40;1.30;;;;;;;;;;5014360;28;20022;-68
2022/10/01 03:36:14;;;;;;;1.50;1.40;;;;;;;;;;5015454;28;20029;-66
2022/10/01 03:38:39;;;;;;;1.92;1.48;;;;;;;;;;5015448;28;20050;-68
2022/10/01 03:41:05;;;;;;;1.70;1.40;;;;;;;;;;5015728;28;20053;-68
2022/10/01 03:43:31;;;;;;;1.95;1.63;;;;;;;;;;5015270;28;20104;-65
2022/10/01 03:45:56;;;;;;;1.20;1.20;;;;;;;;;;5015555;28;20038;-67
2022/10/01 03:48:22;;;;;;;1.63;1.35;;;;;;;;;;5014389;28;20423;-68
2022/10/01 03:50:55;;;;;;;1.73;1.50;;;;;;;;;;5014199;28;20363;-69
2022/10/01 03:53:21;;;;;;;1.70;1.60;;;;;;;;;;5014005;28;20024;-63
2022/10/01 03:55:46;;;;;;;1.42;1.30;;;;;;;;;;5015429;28;20022;-68
2022/10/01 03:58:12;;;;;;;1.50;1.40;;;;;;;;;;5015130;28;20386;-67
2022/10/01 04:00:38;;;;;;;2.33;1.70;;;;;;;;;;5015270;28;20076;-68
2022/10/01 04:03:03;;;;;;;1.60;1.50;;;;;;;;;;5014994;28;20026;-65
2022/10/01 04:05:28;;;;;;;1.65;1.55;;;;;;;;;;5015310;28;20088;-66
2022/10/01 04:07:54;;;;;;;1.35;1.25;;;;;;;;;;5015147;28;20100;-67
2022/10/01 04:10:19;;;;;;;1.83;1.40;;;;;;;;;;5015125;28;20030;-68
2022/10/01 04:12:45;;;;;;;1.63;1.35;;;;;;;;;;5015122;28;20414;-66
2022/10/01 04:15:10;;;;;;;1.58;1.48;;;;;;;;;;5014755;28;20025;-65
2022/10/01 04:17:36;;;;;;;1.55;1.40;;;;;;;;;;5014889;28;20108;-67
2022/10/01 04:20:02;;;;;;;2.13;1.52;;;;;;;;;;5014427;28;20359;-68
2022/10/01 04:22:27;;;;;;;1.48;1.38;;;;;;;;;;5014810;28;20037;-68
2022/10/01 04:24:53;;;;;;;1.67;1.30;;;;;;;;;;5014813;28;20153;-66
2022/10/01 04:27:18;;;;;;;1.50;1.40;;;;;;;;;;5014584;28;20440;-65
2022/10/01 04:29:44;;;;;;;1.70;1.30;;;;;;;;;;5014398;28;20030;-67
2022/10/01 04:32:09;;;;;;;1.60;1.50;;;;;;;;;;5014463;28;20057;-68
2022/10/01 04:34:53;;;;;;;1.20;1.20;;;;;;;;;;5014748;28;20022;-68
2022/10/01 04:37:20;;;;;;;1.40;1.27;;;;;;;;;;5014620;28;20109;-68
2022/10/01 04:39:46;;;;;;;1.40;1.30;;;;;;;;;;5012629;28;20049;-64
2022/10/01 04:42:14;;;;;;;2.03;1.40;;;;;;;;;;5014025;28;20121;-68
2022/10/01 04:44:40;;;;;;;3.38;1.50;;;;;;;;;;5013029;28;20521;-66
2022/10/01 04:47:07;;;;;;;1.60;1.50;;;;;;;;;;5012820;28;20117;-67
2022/10/01 04:49:33;;;;;;;1.60;1.30;;;;;;;;;;5014428;28;20050;-68
2022/10/01 04:51:59;;;;;;;1.48;1.30;;;;;;;;;;5014375;28;20100;-66
2022/10/01 04:54:25;;;;;;;1.50;1.40;;;;;;;;;;5014232;28;20433;-65
2022/10/01 04:56:51;;;;;;;1.55;1.30;;;;;;;;;;5013048;28;20034;-67
2022/10/01 04:59:18;;;;;;;2.38;1.40;;;;;;;;;;5013891;28;20496;-67
2022/10/01 05:01:44;;;;;;;1.42;1.33;;;;;;;;;;5013940;28;20405;-68
2022/10/01 05:04:09;;;;;;;1.58;1.48;;;;;;;;;;5014129;28;20026;-65
2022/10/01 05:06:35;;;;;;;1.55;1.40;;;;;;;;;;5013829;28;20022;-66
2022/10/01 05:09:00;;;;;;;1.45;1.35;;;;;;;;;;5014032;28;20022;-64
2022/10/01 05:11:26;;;;;;;1.42;1.33;;;;;;;;;;5013680;28;20025;-64
2022/10/01 05:13:51;;;;;;;1.50;1.40;;;;;;;;;;5012349;28;20022;-64
2022/10/01 05:16:17;;;;;;;1.55;1.42;;;;;;;;;;5013785;28;20050;-64
2022/10/01 05:18:42;;;;;;;1.45;1.35;;;;;;;;;;5013719;28;20022;-64
2022/10/01 05:21:10;;;;;;;1.77;1.30;;;;;;;;;;5012827;28;20034;-67
2022/10/01 05:23:36;;;;;;;1.50;1.40;;;;;;;;;;5013474;28;20037;-66
2022/10/01 05:26:04;;;;;;;1.50;1.40;;;;;;;;;;5012270;28;20111;-67
2022/10/01 05:28:31;;;;;;;2.30;1.40;;;;;;;;;;5013507;28;20137;-62
2022/10/01 05:31:02;;;;;;;1.75;1.52;;;;;;;;;;5012019;28;20029;-64
2022/10/01 05:33:29;;;;;;;2.35;1.27;;;;;;;;;;5012977;28;20079;-62
2022/10/01 05:35:55;;;;;;;1.50;1.40;;;;;;;;;;5013035;28;20033;-63
2022/10/01 05:38:21;;;;;;;1.60;1.40;;;;;;;;;;5012989;28;20049;-66
2022/10/01 05:40:47;;;;;;;1.60;1.50;;;;;;;;;;5013329;28;20069;-66
2022/10/01 05:43:13;;;;;;;1.73;1.27;;;;;;;;;;5013407;28;20055;-67
2022/10/01 05:45:40;;;;;;;1.90;1.23;;;;;;;;;;5012973;28;20533;-63
2022/10/01 05:48:07;;;;;;;1.35;1.25;;;;;;;;;;5012908;28;20121;-62
2022/10/01 05:50:39;;;;;;;1.50;1.40;;;;;;;;;;5012923;28;20033;-68
2022/10/01 05:53:06;;;;;;;1.42;1.33;;;;;;;;;;5013126;28;20140;-66
2022/10/01 05:55:33;;;;;;;1.70;1.30;;;;;;;;;;5013232;28;20022;-67
2022/10/01 05:58:04;;;;;;;1.40;1.30;;;;;;;;;;5012856;28;20461;-66
2022/10/01 06:00:31;;;;;;;1.40;1.30;;;;;;;;;;5013031;28;20029;-66
2022/10/01 06:03:02;;;;;;;1.75;1.58;;;;;;;;;;5012884;28;20033;-66
2022/10/01 06:05:28;;;;;;;1.40;1.30;;;;;;;;;;5012694;28;20026;-66
2022/10/01 06:07:54;;;;;;;1.40;1.30;;;;;;;;;;5012700;28;20034;-64
2022/10/01 06:10:21;;;;;;;1.50;1.38;;;;;;;;;;5012864;28;20038;-64
2022/10/01 06:12:47;;;;;;;1.92;1.35;;;;;;;;;;5012738;28;20481;-64
2022/10/01 06:15:14;;;;;;;1.45;1.35;;;;;;;;;;5012736;28;20029;-68
2022/10/01 06:17:43;;;;;;;1.38;1.17;;;;;;;;;;5012932;28;20414;-66
2022/10/01 06:20:15;;;;;;;2.17;1.55;;;;;;;;;;5012521;28;20014;-63
2022/10/01 06:22:42;;;;;;;1.60;1.50;;;;;;;;;;5012832;28;20056;-67
2022/10/01 06:25:09;;;;;;;1.13;1.02;;;;;;;;;;5012883;28;20034;-64
2022/10/01 06:27:35;;;;;;;1.38;1.27;;;;;;;;;;5012541;28;20033;-67
2022/10/01 06:30:01;;;;;;;1.45;1.35;;;;;;;;;;5012559;28;20029;-67
2022/10/01 06:32:26;;;;;;;1.40;1.30;;;;;;;;;;5014864;28;20466;-67
2022/10/01 06:34:51;;;;;;;1.38;1.27;;;;;;;;;;5016553;28;20120;-67
2022/10/01 06:37:17;;;;;;;1.63;1.52;;;;;;;;;;5016483;28;20045;-67
2022/10/01 06:39:43;;;;;;;1.45;1.30;;;;;;;;;;5016394;28;20042;-66
2022/10/01 06:42:09;;;;;;;1.20;1.10;;;;;;;;;;5016360;28;20033;-67
2022/10/01 06:44:34;;;;;;;1.60;1.50;;;;;;;;;;5016526;28;20018;-68
2022/10/01 06:47:00;;;;;;;2.47;1.30;;;;;;;;;;5015447;28;20108;-66
2022/10/01 06:49:25;;;;;;;1.58;1.48;;;;;;;;;;5016230;28;20091;-68
2022/10/01 06:54:35;;;;;;;1.38;1.27;;;;;;;;;;5016201;28;20057;-66
2022/10/01 06:57:00;;;;;;;1.40;1.30;;;;;;;;;;5016307;28;20025;-69
2022/10/01 06:59:26;;;;;;;1.45;1.35;;;;;;;;;;5016224;28;20176;-69
2022/10/01 07:01:52;;;;;;;1.20;1.10;;;;;;;;;;5016239;28;20524;-69
2022/10/01 07:04:19;;;;;;;2.30;1.55;;;;;;;;;;5016311;28;20022;-68
2022/10/01 07:06:44;;;;;;;1.90;1.27;;;;;;;;;;5016066;28;20466;-67
2022/10/01 07:09:10;;;;;;;1.52;1.30;;;;;;;;;;5015895;28;20034;-68
2022/10/01 07:11:40;;;;;;;1.50;1.30;;;;;;;;;;5016051;28;20485;-67
2022/10/01 07:14:05;;;;;;;;;;;;;;;;;;5016556;28;20029;-64
2022/10/01 07:16:31;;;;;;;1.30;1.20;;;;;;;;;;5047615;28;19915;-68
2022/10/01 07:18:57;;;;;;;1.65;1.20;;;;;;;;;;5015732;28;20034;-67
2022/10/01 07:21:22;;;;;;;5.18;1.60;;;;;;;;;;5015505;28;20038;-68
2022/10/01 07:23:48;;;;;;;3.25;1.50;;;;;;;;;;5015899;28;20088;-66
2022/10/01 07:26:13;;;;;;;1.30;1.20;;;;;;;;;;5015651;28;20061;-68
2022/10/01 07:28:39;;;;;;;1.88;1.40;;;;;;;;;;5014429;28;20026;-67
2022/10/01 07:31:10;;;;;;;1.27;1.10;;;;;;;;;;5015862;28;20033;-69
2022/10/01 07:33:38;;;;;;;1.20;1.20;;;;;;;;;;5015480;28;20478;-69
2022/10/01 07:36:06;;;;;;;1.70;1.42;;;;;;;;;;5015786;28;20053;-67
2022/10/01 07:38:32;;;;;;;1.40;1.30;;;;;;;;;;5015200;28;20516;-68
2022/10/01 07:40:58;;;;;;;1.52;1.20;;;;;;;;;;5015270;28;20042;-67
2022/10/01 07:43:25;;;;;;;1.40;1.30;;;;;;;;;;5014958;28;20022;-68
2022/10/01 07:45:53;;;;;;;1.67;1.35;;;;;;;;;;5015513;28;20034;-67
2022/10/01 07:48:19;;;;;;;3.17;1.17;;;;;;;;;;5015551;28;20030;-68
2022/10/01 07:50:45;;;;;;;1.50;1.40;;;;;;;;;;5015544;28;20032;-68
2022/10/01 07:53:11;;;;;;;1.33;1.23;;;;;;;;;;5015349;28;20480;-68
2022/10/01 07:55:37;;;;;;;1.45;1.10;;;;;;;;;;5015413;28;20108;-68
2022/10/01 07:58:03;;;;;;;1.52;1.20;;;;;;;;;;5015373;28;20575;-68
2022/10/01 08:00:30;;;;;;;1.60;1.33;;;;;;;;;;5014988;28;20112;-63
2022/10/01 08:02:56;;;;;;;1.50;1.40;;;;;;;;;;5015348;28;20362;-68
2022/10/01 08:05:27;;;;;;;1.40;1.30;;;;;;;;;;5014829;28;20022;-69
2022/10/01 08:07:57;;;;;;;1.55;1.10;;;;;;;;;;5015268;28;20032;-69
2022/10/01 08:10:23;;;;;;;1.20;1.20;;;;;;;;;;5015100;28;20038;-66
2022/10/01 08:12:48;;;;;;;1.40;1.30;;;;;;;;;;5014827;28;20030;-68
2022/10/01 08:15:16;;;;;;;1.42;1.33;;;;;;;;;;5014893;28;20113;-68
2022/10/01 08:17:42;;;;;;;1.30;1.20;;;;;;;;;;5014648;28;20036;-69
2022/10/01 08:20:10;;;;;;;1.60;1.30;;;;;;;;;;5014637;28;20029;-67
2022/10/01 08:22:37;;;;;;;1.00;1.00;;;;;;;;;;5014700;28;20033;-68
2022/10/01 08:25:03;;;;;;;1.30;1.20;;;;;;;;;;5014435;28;20033;-67
2022/10/01 08:27:29;;;;;;;1.38;1.27;;;;;;;;;;5014824;28;20032;-67
2022/10/01 08:29:54;;;;;;;1.85;1.05;;;;;;;;;;5014454;28;20026;-67
2022/10/01 08:32:22;;;;;;;2.30;1.40;;;;;;;;;;5014418;28;20026;-69
2022/10/01 08:34:48;;;;;;;1.20;1.10;;;;;;;;;;5014389;28;20034;-67
2022/10/01 08:37:14;;;;;;;1.10;1.10;;;;;;;;;;5014253;28;20025;-68
2022/10/01 08:39:40;;;;;;;1.13;1.10;;;;;;;;;;5014337;28;20101;-68
2022/10/01 08:42:12;;;;;;;1.30;1.20;;;;;;;;;;5014502;28;20441;-67
2022/10/01 08:44:41;;;;;;;1.88;1.20;;;;;;;;;;5014165;28;20069;-70
2022/10/01 08:47:32;;;;;;;1.48;1.38;;;;;;;;;;5014511;28;20026;-69
2022/10/01 08:50:22;;;;;;;1.50;1.17;;;;;;;;;;5013995;28;20488;-67
2022/10/01 08:52:53;;;;;;;1.63;1.48;;;;;;;;;;5013901;28;20041;-70
2022/10/01 08:55:23;;;;;;;1.75;1.23;;;;;;;;;;5013196;28;20410;-70
2022/10/01 08:57:55;;;;;;;1.42;1.33;;;;;;;;;;5013868;28;20030;-69
2022/10/01 09:00:21;;;;;;;2.22;1.48;;;;;;;;;;5013895;28;20033;-68
2022/10/01 09:02:47;;;;;;;1.58;1.40;;;;;;;;;;5013806;28;20029;-68
2022/10/01 09:05:26;;;;;;;1.70;1.20;;;;;;;;;;5023522;28;20026;-69
2022/10/01 09:08:15;;;;;;;1.67;1.30;;;;;;;;;;5031428;28;20055;-67
2022/10/01 09:10:44;;;;;;;1.30;1.20;;;;;;;;;;5033541;28;20120;-66
2022/10/01 09:13:22;;;;;;;1.38;1.27;;;;;;;;;;5013645;28;20025;-69
2022/10/01 09:16:16;;;;;;;1.10;1.00;;;;;;;;;;5032942;28;20037;-70
2022/10/01 09:19:16;;;;;;;1.45;1.35;;;;;;;;;;5031415;28;20034;-65
2022/10/01 09:21:57;;;;;;;1.88;1.38;;;;;;;;;;5031390;28;20494;-64
2022/10/01 09:25:04;;;;;;;1.35;1.25;;;;;;;;;;5031897;28;20477;-66
2022/10/01 09:27:30;;;;;;;1.52;1.30;;;;;;;;;;5019686;28;20416;-67
2022/10/01 09:30:04;;;;;;;1.15;1.13;;;;;;;;;;5034856;28;20017;-66
2022/10/01 09:32:40;;;;;;;1.52;1.40;;;;;;;;;;5035917;28;20079;-67
2022/10/01 09:35:38;;;;;;;2.22;1.38;;;;;;;;;;5030608;28;20032;-67
2022/10/01 09:38:35;;;;;;;1.30;1.20;;;;;;;;;;5039908;28;20025;-67
2022/10/01 09:41:01;;;;;;;1.52;1.30;;;;;;;;;;5032144;28;20506;-67
2022/10/01 09:43:30;;;;;;;1.25;1.15;;;;;;;;;;5037871;28;20038;-68
2022/10/01 09:45:56;;;;;;;2.13;1.30;;;;;;;;;;5037251;28;20607;-67
2022/10/01 09:48:30;;;;;;;2.05;1.33;;;;;;;;;;5041613;28;20029;-67
2022/10/01 09:51:17;;;;;;;1.25;1.10;;;;;;;;;;5038730;28;20132;-67
2022/10/01 09:53:51;;;;;;;2.78;1.40;;;;;;;;;;5040803;28;20083;-67
2022/10/01 09:56:24;;;;;;;1.95;1.55;;;;;;;;;;5038663;28;20033;-67
2022/10/01 09:58:58;;;;;;;1.40;1.30;;;;;;;;;;5037028;28;20091;-68
2022/10/01 10:01:47;;;;;;;1.75;1.40;;;;;;;;;;5032775;28;20029;-68
2022/10/01 10:04:19;;;;;;;1.33;1.23;;;;;;;;;;5032974;28;20703;-67
2022/10/01 10:06:46;;;;;;;1.27;1.17;;;;;;;;;;5032400;28;20485;-69
2022/10/01 10:09:17;;;;;;;1.48;1.38;;;;;;;;;;5032617;28;20052;-67
2022/10/01 10:11:44;;;;;;;1.30;1.20;;;;;;;;;;5032477;28;20017;-68
2022/10/01 10:14:28;;;;;;;1.30;1.20;;;;;;;;;;5032787;28;20021;-69
2022/10/01 10:16:55;;;;;;;2.45;1.20;;;;;;;;;;5032316;28;20104;-67
2022/10/01 10:19:24;;;;;;;1.30;1.20;;;;;;;;;;5032778;28;20044;-68
2022/10/01 10:21:58;;;;;;;1.13;1.10;;;;;;;;;;5032470;28;20033;-68
2022/10/01 10:24:25;;;;;;;1.33;1.23;;;;;;;;;;5032674;28;20029;-68
2022/10/01 10:26:57;;;;;;;1.42;1.33;;;;;;;;;;5032332;28;20373;-68
2022/10/01 10:29:40;;;;;;;1.40;1.30;;;;;;;;;;5032651;28;20060;-69
2022/10/01 10:32:24;;;;;;;1.40;1.30;;;;;;;;;;5031044;28;20491;-68
2022/10/01 10:34:52;;;;;;;1.40;1.30;;;;;;;;;;5034727;28;20064;-69
2022/10/01 10:37:22;;;;;;;1.58;1.20;;;;;;;;;;5032040;28;20026;-68
2022/10/01 10:39:50;;;;;;;1.67;1.20;;;;;;;;;;5039732;28;20045;-68
2022/10/01 10:42:17;;;;;;;1.40;1.30;;;;;;;;;;5038385;28;20045;-68
2022/10/01 10:44:45;;;;;;;1.15;1.15;;;;;;;;;;5036860;28;20035;-67
2022/10/01 10:47:16;;;;;;;1.92;1.55;;;;;;;;;;5040993;28;20048;-67
2022/10/01 10:49:45;;;;;;;3.80;1.65;;;;;;;;;;5037231;28;20029;-69
2022/10/01 10:52:18;;;;;;;3.17;1.67;;;;;;;;;;5039987;28;20063;-69
2022/10/01 10:54:47;;;;;;;2.30;1.80;;;;;;;;;;5034987;28;20029;-68
2022/10/01 10:57:12;;;;;;;2.65;1.70;;;;;;;;;;5045003;28;20115;-69
2022/10/01 10:59:38;;;;;;;3.88;2.00;;;;;;;;;;5042953;28;20130;-68
2022/10/01 11:02:06;;;;;;;2.20;1.90;;;;;;;;;;5039565;28;20381;-68
2022/10/01 11:04:41;;;;;;;2.30;2.00;;;;;;;;;;5027804;28;20068;-71
2022/10/01 11:07:06;;;;;;;4.68;2.10;;;;;;;;;;5012186;28;20528;-67
2022/10/01 11:10:04;;;;;;;2.30;2.10;;;;;;;;;;5014701;28;20025;-68
2022/10/01 11:12:29;;;;;;;1.88;1.77;;;;;;;;;;5032268;28;20033;-69
2022/10/01 11:15:09;;;;;;;2.88;2.20;;;;;;;;;;5031832;28;20032;-68
2022/10/01 11:17:39;;;;;;;2.70;2.25;;;;;;;;;;5046249;28;20354;-69
2022/10/01 11:20:26;;;;;;;4.40;2.20;;;;;;;;;;5055501;28;20120;-70
2022/10/01 11:23:36;;;;;;;3.53;1.95;;;;;;;;;;5046150;28;20048;-70
2022/10/01 11:26:28;;;;;;;2.10;1.90;;;;;;;;;;4993877;28;20030;-71
2022/10/01 11:28:59;;;;;;;2.72;2.00;;;;;;;;;;5019222;28;20027;-69
2022/10/01 11:31:49;;;;;;;3.75;2.20;;;;;;;;;;5044961;28;20104;-68
2022/10/01 11:34:48;;;;;;;5.15;2.08;;;;;;;;;;5043135;28;20017;-70
2022/10/01 11:37:26;;;;;;;5.47;2.30;;;;;;;;;;5025420;28;20041;-71
2022/10/01 11:39:56;;;;;;;2.30;2.00;;;;;;;;;;5035191;28;20189;-72
2022/10/01 11:42:33;;;;;;;2.60;2.15;;;;;;;;;;5035087;28;20029;-70
2022/10/01 11:45:10;;;;;;;3.53;2.00;;;;;;;;;;5035177;28;20627;-66
2022/10/01 11:47:48;;;;;;;5.43;2.33;;;;;;;;;;5035413;28;20056;-69
2022/10/01 11:50:32;;;;;;;7.22;2.20;;;;;;;;;;5035254;28;20092;-69
2022/10/01 11:53:11;;;;;;;4.13;2.25;;;;;;;;;;5034987;28;20103;-71
2022/10/01 11:58:49;;;;;;;4.97;2.30;;;;;;;;;;5035089;28;20067;-72
2022/10/01 12:01:27;;;;;;;4.57;2.00;;;;;;;;;;5034753;28;20036;-69
2022/10/01 12:03:53;;;;;;;5.45;2.40;;;;;;;;;;5034645;28;20425;-73
2022/10/01 12:06:50;;;;;;;5.25;2.33;;;;;;;;;;5035022;28;20022;-72
2022/10/01 12:09:27;;;;;;;4.30;2.70;;;;;;;;;;5042772;28;20103;-72
2022/10/01 12:12:19;;;;;;;4.43;2.72;;;;;;;;;;5054457;28;20024;-72
2022/10/01 12:15:17;;;;;;;6.03;2.45;;;;;;;;;;5051237;28;20424;-70
2022/10/01 12:17:50;;;;;;;4.22;2.28;;;;;;;;;;5034891;28;20025;-75
2022/10/01 12:20:44;;;;;;;2.97;2.40;;;;;;;;;;5033522;28;20032;-74
2022/10/01 12:23:21;;;;;;;3.72;2.40;;;;;;;;;;5033193;28;20029;-72
2022/10/01 12:26:03;;;;;;;4.63;2.40;;;;;;;;;;5042260;28;20037;-70
2022/10/01 12:28:45;;;;;;;8.13;2.40;;;;;;;;;;5040558;28;20080;-71
2022/10/01 12:31:11;;;;;;;4.95;3.10;;;;;;;;;;5039524;28;20492;-71
2022/10/01 12:33:52;;;;;;;4.35;2.50;;;;;;;;;;5046460;28;20033;-65
2022/10/01 12:36:39;;;;;;;3.55;2.35;;;;;;;;;;5049476;28;20044;-66
2022/10/01 12:39:21;;;;;;;4.20;2.58;;;;;;;;;;5052228;28;20049;-66
2022/10/01 12:41:47;;;;;;;3.88;2.70;;;;;;;;;;5044915;28;20064;-68
2022/10/01 12:44:33;;;;;;;6.45;2.70;;;;;;;;;;5032708;28;20377;-69
2022/10/01 12:47:24;;;;;;;3.40;2.70;;;;;;;;;;5035700;28;20036;-69
2022/10/01 12:50:15;;;;;;;3.15;2.72;;;;;;;;;;5052453;28;20033;-68
2022/10/01 12:52:59;;;;;;;3.38;2.50;;;;;;;;;;5038753;28;20029;-69
2022/10/01 12:55:43;;;;;;;6.53;2.80;;;;;;;;;;5032285;28;20029;-68
2022/10/01 12:58:32;;;;;;;3.88;2.80;;;;;;;;;;5042091;28;20040;-69
2022/10/01 13:01:13;;;;;;;3.03;2.65;;;;;;;;;;5048254;28;20032;-67
2022/10/01 13:04:02;;;;;;;4.78;2.85;;;;;;;;;;5050689;28;20076;-69
2022/10/01 13:06:46;;;;;;;4.70;2.60;;;;;;;;;;5051842;28;20025;-68
2022/10/01 13:09:21;;;;;;;3.70;2.60;;;;;;;;;;5042863;28;20029;-68
2022/10/01 13:12:26;;;;;;;6.53;3.00;;;;;;;;;;5034568;28;20036;-70
2022/10/01 13:14:53;;;;;;;9.73;2.67;;;;;;;;;;5021204;28;20500;-65
2022/10/01 13:17:41;;;;;;;5.03;2.80;;;;;;;;;;5033195;28;20473;-70
2022/10/01 13:20:32;;;;;;;3.85;3.08;;;;;;;;;;5031876;28;20033;-68
2022/10/01 13:22:58;;;;;;;5.47;3.10;;;;;;;;;;5031735;28;20500;-68
2022/10/01 13:25:30;;;;;;;7.07;2.58;;;;;;;;;;5031765;28;20473;-69
2022/10/01 13:28:14;;;;;;;4.80;2.67;;;;;;;;;;5028528;28;20026;-67
2022/10/01 13:30:51;;;;;;;4.82;2.70;;;;;;;;;;5027820;28;20037;-68
2022/10/01 13:33:27;;;;;;;5.13;2.50;;;;;;;;;;5030248;28;20045;-66
2022/10/01 13:35:59;;;;;;;3.70;2.38;;;;;;;;;;5048180;28;20050;-67
2022/10/01 13:38:36;;;;;;;3.92;2.65;;;;;;;;;;5014482;28;20149;-68
2022/10/01 13:41:04;;;;;;;4.85;2.78;;;;;;;;;;5028247;28;20049;-67
2022/10/01 13:43:32;;;;;;;3.90;2.45;;;;;;;;;;5028685;28;20061;-66
2022/10/01 13:46:09;;;;;;;4.43;2.63;;;;;;;;;;5028785;28;20037;-67
2022/10/01 13:48:43;;;;;;;4.45;2.55;;;;;;;;;;5027956;28;20474;-69
2022/10/01 13:51:11;;;;;;;4.57;2.80;;;;;;;;;;5028877;28;20029;-68
2022/10/01 13:53:40;;;;;;;6.00;2.50;;;;;;;;;;5027189;28;20017;-68
2022/10/01 13:56:08;;;;;;;3.33;2.30;;;;;;;;;;5030185;28;20038;-67
2022/10/01 13:58:42;;;;;;;5.72;2.78;;;;;;;;;;5028506;28;20726;-68
2022/10/01 14:01:19;;;;;;;4.22;2.67;;;;;;;;;;5031013;28;20041;-68
2022/10/01 14:04:04;;;;;;;4.43;2.40;;;;;;;;;;5030967;28;20032;-67
2022/10/01 14:06:35;;;;;;;4.70;2.20;;;;;;;;;;5030954;28;20029;-69
2022/10/01 14:09:39;;;;;;;3.30;2.30;;;;;;;;;;5051077;28;20556;-67
2022/10/01 14:18:09;;;;;;;5.78;2.30;;;;;;;;;;5046207;28;20067;-68
2022/10/01 14:21:03;;;;;;;3.60;2.22;;;;;;;;;;5050498;28;20032;-67
2022/10/01 14:23:56;;;;;;;7.72;2.55;;;;;;;;;;5050675;28;20539;-66
2022/10/01 14:26:58;;;;;;;3.33;2.20;;;;;;;;;;5049993;28;20043;-66
2022/10/01 14:29:41;;;;;;;4.45;2.20;;;;;;;;;;5050500;28;20370;-66
2022/10/01 14:32:31;;;;;;;3.60;2.10;;;;;;;;;;5050748;28;20098;-68
2022/10/01 14:35:05;;;;;;;2.28;1.98;;;;;;;;;;5047246;28;20025;-67
2022/10/01 14:37:37;;;;;;;2.38;2.17;;;;;;;;;;5050638;28;20078;-68
2022/10/01 14:40:18;;;;;;;3.28;2.15;;;;;;;;;;5024741;28;20179;-67
2022/10/01 14:42:54;;;;;;;4.75;2.13;;;;;;;;;;5038400;28;20032;-67
2022/10/01 14:45:20;;;;;;;4.57;2.17;;;;;;;;;;5030040;28;20481;-67
2022/10/01 14:47:48;;;;;;;5.88;2.20;;;;;;;;;;5024948;28;20025;-68
2022/10/01 14:50:20;;;;;;;2.75;2.20;;;;;;;;;;5023096;28;20048;-67
2022/10/01 14:52:49;;;;;;;4.13;2.40;;;;;;;;;;5027512;28;20039;-68
2022/10/01 14:55:19;;;;;;;2.33;2.13;;;;;;;;;;5034014;28;20113;-68
2022/10/01 14:57:48;;;;;;;3.27;2.03;;;;;;;;;;5031098;28;20033;-67
2022/10/01 15:00:16;;;;;;;5.43;2.40;;;;;;;;;;5034410;28;20033;-65
2022/10/01 15:02:47;;;;;;;3.38;2.00;;;;;;;;;;5034396;28;20286;-68
2022/10/01 15:05:21;;;;;;;5.95;2.55;;;;;;;;;;5041071;28;20033;-67
2022/10/01 15:07:47;;;;;;;3.25;2.30;;;;;;;;;;5053911;28;20029;-67
2022/10/01 15:10:16;;;;;;;3.63;2.08;;;;;;;;;;5047160;28;20044;-67
2022/10/01 15:12:42;;;;;;;3.03;2.08;;;;;;;;;;5033205;28;20025;-66
2022/10/01 15:15:17;;;;;;;6.78;2.40;;;;;;;;;;5035740;28;20033;-67
2022/10/01 15:17:43;;;;;;;5.95;2.28;;;;;;;;;;5023852;28;20692;-67
2022/10/01 15:20:11;;;;;;;5.40;2.20;;;;;;;;;;5034353;28;20025;-67
2022/10/01 15:22:37;;;;;;;3.83;2.30;;;;;;;;;;5033783;28;20033;-69
2022/10/01 15:25:03;;;;;;;5.47;2.50;;;;;;;;;;5034107;28;20029;-67